Time;durP1;ratioP1;P1;durP2;ratioP2;P2;SDS_P1;SDS_P2;PMS_P1;PMS_P2;Temp;Humidity;BMP_temperature;BMP_pressure;BME280_temperature;BME280_humidity;BME280_pressure;Samples;Min_cycle;Max_cycle;Signal;HPM_P1;HPM_P2
2021/04/26 00:00:31;;;;;;;5.80;0.85;;;;;;;;;;1484478;40;20386;-89
2021/04/26 00:01:32;;;;;;;5.00;0.60;;;;;;;;;;1484624;40;20498;-90
2021/04/26 00:02:34;;;;;;;3.83;0.95;;;;;;;;;;1484385;40;20454;-90
2021/04/26 00:03:35;;;;;;;4.78;0.73;;;;;;;;;;1479577;40;20535;-90
2021/04/26 00:04:36;;;;;;;3.72;1.40;;;;;;;;;;1476417;40;20545;-90
2021/04/26 00:05:37;;;;;;;8.82;0.85;;;;;;;;;;1480649;40;20423;-90
2021/04/26 00:06:38;;;;;;;5.25;0.95;;;;;;;;;;1480809;40;20419;-89
2021/04/26 00:07:40;;;;;;;4.18;0.70;;;;;;;;;;1480441;40;20396;-89
2021/04/26 00:08:41;;;;;;;3.22;1.23;;;;;;;;;;1480590;40;20431;-90
2021/04/26 00:09:43;;;;;;;4.28;1.10;;;;;;;;;;1480665;40;20470;-91
2021/04/26 00:10:44;;;;;;;3.38;0.90;;;;;;;;;;1480767;40;20410;-89
2021/04/26 00:11:45;;;;;;;4.30;0.75;;;;;;;;;;1483841;40;20425;-90
2021/04/26 00:12:47;;;;;;;8.38;1.02;;;;;;;;;;1484472;40;20412;-90
2021/04/26 00:13:51;;;;;;;3.58;0.90;;;;;;;;;;1480967;40;20815;-92
2021/04/26 00:14:53;;;;;;;4.63;0.82;;;;;;;;;;1481228;40;20398;-90
2021/04/26 00:15:54;;;;;;;2.67;0.70;;;;;;;;;;1480749;40;20403;-91
2021/04/26 00:16:55;;;;;;;4.97;0.93;;;;;;;;;;1476974;40;20408;-89
2021/04/26 00:17:56;;;;;;;4.93;0.77;;;;;;;;;;1483014;40;20410;-90
2021/04/26 00:19:00;;;;;;;3.55;0.73;;;;;;;;;;1479713;40;20420;-90
2021/04/26 00:20:06;;;;;;;4.40;1.10;;;;;;;;;;1475349;40;20405;-89
2021/04/26 00:21:07;;;;;;;7.28;0.70;;;;;;;;;;1480305;40;20403;-89
2021/04/26 00:22:08;;;;;;;6.00;1.30;;;;;;;;;;1480029;40;20439;-89
2021/04/26 00:23:09;;;;;;;3.70;0.85;;;;;;;;;;1483901;40;20409;-90
2021/04/26 00:24:12;;;;;;;4.82;0.70;;;;;;;;;;1483898;40;20430;-90
2021/04/26 00:25:14;;;;;;;3.38;1.02;;;;;;;;;;1483803;40;20418;-88
2021/04/26 00:26:15;;;;;;;7.00;0.75;;;;;;;;;;1479542;40;20467;-88
2021/04/26 00:27:16;;;;;;;4.68;0.80;;;;;;;;;;1474828;40;20421;-89
2021/04/26 00:28:17;;;;;;;4.13;1.10;;;;;;;;;;1478612;40;20420;-90
2021/04/26 00:29:18;;;;;;;5.93;0.70;;;;;;;;;;1479294;40;20407;-90
2021/04/26 00:30:20;;;;;;;5.78;0.80;;;;;;;;;;1476346;40;21042;-89
2021/04/26 00:31:21;;;;;;;6.07;1.20;;;;;;;;;;1480969;40;20402;-91
2021/04/26 00:32:22;;;;;;;2.92;0.73;;;;;;;;;;1476899;40;20804;-90
2021/04/26 00:33:25;;;;;;;9.05;1.05;;;;;;;;;;1472638;40;20406;-88
2021/04/26 00:34:29;;;;;;;3.15;0.80;;;;;;;;;;1479981;40;21436;-90
2021/04/26 00:35:30;;;;;;;4.75;0.90;;;;;;;;;;1480914;40;20417;-90
2021/04/26 00:36:31;;;;;;;6.35;1.08;;;;;;;;;;1481300;40;20406;-89
2021/04/26 00:37:32;;;;;;;4.55;1.02;;;;;;;;;;1479306;40;20407;-91
2021/04/26 00:38:34;;;;;;;7.00;1.30;;;;;;;;;;1475956;40;20701;-90
2021/04/26 00:39:35;;;;;;;3.83;1.00;;;;;;;;;;1480620;40;20414;-90
2021/04/26 00:40:36;;;;;;;3.88;0.80;;;;;;;;;;1482886;40;20413;-90
2021/04/26 00:41:37;;;;;;;5.45;0.80;;;;;;;;;;1483664;40;20402;-90
2021/04/26 00:42:40;;;;;;;5.75;0.90;;;;;;;;;;1479786;40;20419;-91
2021/04/26 00:43:41;;;;;;;6.72;1.20;;;;;;;;;;1480077;40;20474;-90
2021/04/26 00:44:42;;;;;;;6.18;1.10;;;;;;;;;;1484715;39;20411;-90
2021/04/26 00:45:43;;;;;;;7.15;1.10;;;;;;;;;;1484845;39;20406;-90
2021/04/26 00:46:45;;;;;;;5.40;0.90;;;;;;;;;;1484771;40;20406;-90
2021/04/26 00:47:47;;;;;;;7.10;1.05;;;;;;;;;;1485062;40;20390;-90
2021/04/26 00:48:49;;;;;;;5.07;1.00;;;;;;;;;;1483071;40;20413;-90
2021/04/26 00:49:50;;;;;;;4.93;0.80;;;;;;;;;;1480802;40;20403;-91
2021/04/26 00:50:53;;;;;;;4.35;0.82;;;;;;;;;;1480369;40;20413;-90
2021/04/26 00:51:54;;;;;;;4.15;0.80;;;;;;;;;;1479357;40;20421;-90
2021/04/26 00:52:55;;;;;;;4.38;1.15;;;;;;;;;;1479605;40;20768;-91
2021/04/26 00:53:56;;;;;;;3.40;0.80;;;;;;;;;;1479900;40;20410;-90
2021/04/26 00:54:58;;;;;;;6.15;1.33;;;;;;;;;;1475902;40;20419;-89
2021/04/26 00:56:00;;;;;;;6.70;0.93;;;;;;;;;;1478629;40;20399;-90
2021/04/26 00:57:01;;;;;;;6.43;1.20;;;;;;;;;;1479959;40;20672;-91
2021/04/26 00:58:03;;;;;;;7.72;0.90;;;;;;;;;;1476000;40;20535;-90
2021/04/26 00:59:04;;;;;;;4.13;0.73;;;;;;;;;;1475838;40;20419;-91
2021/04/26 01:00:07;;;;;;;4.03;1.10;;;;;;;;;;1483309;40;20436;-89
2021/04/26 01:01:11;;;;;;;6.20;1.10;;;;;;;;;;1483120;40;20836;-91
2021/04/26 01:02:12;;;;;;;5.40;1.30;;;;;;;;;;1475834;40;20416;-90
2021/04/26 01:03:13;;;;;;;5.95;1.38;;;;;;;;;;1474922;40;20994;-86
2021/04/26 01:04:15;;;;;;;5.30;1.35;;;;;;;;;;1478038;40;20414;-88
2021/04/26 01:05:17;;;;;;;4.97;0.95;;;;;;;;;;1478294;40;20417;-86
2021/04/26 01:06:18;;;;;;;5.25;0.80;;;;;;;;;;1469746;40;20409;-85
2021/04/26 01:07:20;;;;;;;5.75;1.52;;;;;;;;;;1475048;40;20423;-91
2021/04/26 01:08:21;;;;;;;6.85;1.30;;;;;;;;;;1480267;40;20398;-91
2021/04/26 01:09:22;;;;;;;3.60;0.82;;;;;;;;;;1480520;40;20466;-91
2021/04/26 01:10:26;;;;;;;6.50;1.13;;;;;;;;;;1475679;40;20384;-91
2021/04/26 01:11:35;;;;;;;6.25;1.45;;;;;;;;;;1482485;40;20455;-91
2021/04/26 01:12:46;;;;;;;6.88;1.10;;;;;;;;;;1484402;40;20538;-90
2021/04/26 01:13:59;;;;;;;5.53;0.95;;;;;;;;;;1480428;40;20457;-88
2021/04/26 01:15:07;;;;;;;4.75;1.00;;;;;;;;;;1481032;40;20459;-90
2021/04/26 01:16:15;;;;;;;6.78;1.60;;;;;;;;;;1480973;40;20414;-91
2021/04/26 01:17:24;;;;;;;3.38;0.70;;;;;;;;;;1476958;40;20399;-90
2021/04/26 01:18:29;;;;;;;5.05;1.13;;;;;;;;;;1478193;40;20421;-91
2021/04/26 01:19:49;;;;;;;4.38;0.75;;;;;;;;;;1475569;40;20399;-90
2021/04/26 01:21:08;;;;;;;5.68;0.98;;;;;;;;;;1477076;40;20391;-91
2021/04/26 01:22:13;;;;;;;3.67;0.70;;;;;;;;;;1477179;40;20404;-89
2021/04/26 01:23:26;;;;;;;4.90;1.02;;;;;;;;;;1476082;40;20527;-89
2021/04/26 01:24:36;;;;;;;3.53;0.90;;;;;;;;;;1476471;40;21202;-90
2021/04/26 01:25:40;;;;;;;3.30;0.60;;;;;;;;;;1478371;40;20395;-89
2021/04/26 01:27:00;;;;;;;5.38;1.30;;;;;;;;;;1477085;40;20416;-90
2021/04/26 01:28:23;;;;;;;6.10;1.08;;;;;;;;;;1485603;40;20439;-91
2021/04/26 01:29:38;;;;;;;3.20;1.00;;;;;;;;;;1477296;40;20400;-91
2021/04/26 01:30:41;;;;;;;4.53;0.93;;;;;;;;;;1479793;40;20421;-89
2021/04/26 01:32:09;;;;;;;9.25;1.17;;;;;;;;;;1481972;40;20398;-90
2021/04/26 01:33:21;;;;;;;5.90;1.13;;;;;;;;;;1468541;40;20415;-91
2021/04/26 01:34:26;;;;;;;3.35;0.80;;;;;;;;;;1474511;40;20406;-90
2021/04/26 01:35:28;;;;;;;6.22;1.15;;;;;;;;;;1478294;40;20404;-89
2021/04/26 01:36:30;;;;;;;4.35;0.75;;;;;;;;;;1478978;40;20396;-90
2021/04/26 01:37:33;;;;;;;4.82;0.70;;;;;;;;;;1484034;40;20404;-89
2021/04/26 01:38:36;;;;;;;6.00;1.20;;;;;;;;;;1483349;40;20410;-89
2021/04/26 01:39:38;;;;;;;7.88;1.20;;;;;;;;;;1479561;40;20411;-89
2021/04/26 01:40:43;;;;;;;4.20;0.90;;;;;;;;;;1485131;40;20433;-89
2021/04/26 01:41:45;;;;;;;5.57;1.27;;;;;;;;;;1484775;40;20410;-89
2021/04/26 01:42:47;;;;;;;7.22;1.20;;;;;;;;;;1481118;40;20388;-90
2021/04/26 01:43:50;;;;;;;8.23;1.15;;;;;;;;;;1480923;40;20493;-89
2021/04/26 01:44:52;;;;;;;5.75;0.90;;;;;;;;;;1480657;40;20404;-89
2021/04/26 01:45:54;;;;;;;3.95;0.90;;;;;;;;;;1480490;40;20527;-90
2021/04/26 01:46:55;;;;;;;6.65;1.15;;;;;;;;;;1475699;40;20465;-89
2021/04/26 01:47:57;;;;;;;5.55;1.30;;;;;;;;;;1479427;40;20490;-89
2021/04/26 01:49:07;;;;;;;6.10;1.13;;;;;;;;;;1481891;40;20668;-89
2021/04/26 01:50:09;;;;;;;6.18;0.98;;;;;;;;;;1476912;40;20804;-89
2021/04/26 01:51:13;;;;;;;3.92;0.95;;;;;;;;;;1476949;40;20400;-89
2021/04/26 01:52:20;;;;;;;5.20;0.90;;;;;;;;;;1479890;40;20406;-90
2021/04/26 01:53:22;;;;;;;4.47;0.90;;;;;;;;;;1479967;40;20401;-90
2021/04/26 01:54:26;;;;;;;5.03;1.05;;;;;;;;;;1476805;40;20477;-89
2021/04/26 01:55:28;;;;;;;5.05;1.30;;;;;;;;;;1476387;40;20507;-90
2021/04/26 01:56:34;;;;;;;2.42;0.70;;;;;;;;;;1484415;40;20453;-89
2021/04/26 01:57:37;;;;;;;3.53;1.30;;;;;;;;;;1482835;40;20404;-89
2021/04/26 01:58:39;;;;;;;4.63;1.05;;;;;;;;;;1483897;40;20396;-89
2021/04/26 01:59:47;;;;;;;5.72;0.82;;;;;;;;;;1480616;40;20486;-89
2021/04/26 02:00:50;;;;;;;4.50;1.10;;;;;;;;;;1484201;40;20389;-89
2021/04/26 02:01:56;;;;;;;5.85;1.15;;;;;;;;;;1475724;40;20898;-90
2021/04/26 02:03:01;;;;;;;4.95;1.17;;;;;;;;;;1476790;40;20906;-89
2021/04/26 02:04:04;;;;;;;8.50;1.00;;;;;;;;;;1480727;40;20418;-91
2021/04/26 02:05:07;;;;;;;5.70;1.00;;;;;;;;;;1483844;40;20422;-91
2021/04/26 02:06:15;;;;;;;5.28;1.33;;;;;;;;;;1481083;40;20561;-91
2021/04/26 02:07:17;;;;;;;4.10;1.30;;;;;;;;;;1480070;40;20395;-90
2021/04/26 02:08:18;;;;;;;4.57;1.08;;;;;;;;;;1481022;40;20446;-89
2021/04/26 02:09:19;;;;;;;4.00;1.00;;;;;;;;;;1476608;40;20400;-90
2021/04/26 02:10:22;;;;;;;6.68;1.17;;;;;;;;;;1476955;40;20396;-90
2021/04/26 02:11:24;;;;;;;6.32;1.30;;;;;;;;;;1481786;40;20417;-91
2021/04/26 02:12:25;;;;;;;5.47;1.02;;;;;;;;;;1481482;40;20471;-89
2021/04/26 02:13:28;;;;;;;5.10;1.20;;;;;;;;;;1476386;40;20408;-90
2021/04/26 02:14:30;;;;;;;7.72;1.25;;;;;;;;;;1484753;40;20385;-89
2021/04/26 02:15:31;;;;;;;5.85;1.00;;;;;;;;;;1480840;40;20476;-90
2021/04/26 02:16:34;;;;;;;4.32;1.20;;;;;;;;;;1473018;40;20385;-90
2021/04/26 02:17:35;;;;;;;6.63;1.23;;;;;;;;;;1476712;40;20404;-89
2021/04/26 02:18:38;;;;;;;8.52;1.15;;;;;;;;;;1474508;40;20402;-88
2021/04/26 02:19:39;;;;;;;9.57;1.77;;;;;;;;;;1469147;40;20423;-90
2021/04/26 02:20:41;;;;;;;5.75;1.30;;;;;;;;;;1472249;40;20429;-90
2021/04/26 02:21:43;;;;;;;3.50;0.85;;;;;;;;;;1481167;40;20402;-89
2021/04/26 02:22:49;;;;;;;4.13;1.20;;;;;;;;;;1477784;40;20396;-90
2021/04/26 02:23:50;;;;;;;4.97;1.00;;;;;;;;;;1484239;40;20409;-89
2021/04/26 02:24:52;;;;;;;9.48;2.00;;;;;;;;;;1479861;40;20408;-90
2021/04/26 02:25:53;;;;;;;7.53;1.38;;;;;;;;;;1480721;40;20445;-91
2021/04/26 02:26:58;;;;;;;3.97;1.27;;;;;;;;;;1484010;40;20449;-90
2021/04/26 02:27:59;;;;;;;5.38;1.42;;;;;;;;;;1487344;40;20392;-90
2021/04/26 02:29:00;;;;;;;4.93;1.17;;;;;;;;;;1484191;40;20421;-89
2021/04/26 02:30:02;;;;;;;3.90;1.35;;;;;;;;;;1483408;40;20465;-90
2021/04/26 02:31:05;;;;;;;6.38;1.33;;;;;;;;;;1479689;40;20388;-89
2021/04/26 02:32:09;;;;;;;6.47;1.30;;;;;;;;;;1485225;40;20403;-90
2021/04/26 02:33:13;;;;;;;5.85;1.10;;;;;;;;;;1484519;40;20402;-91
2021/04/26 02:34:24;;;;;;;4.65;1.33;;;;;;;;;;1480971;40;20405;-87
2021/04/26 02:35:32;;;;;;;6.97;1.48;;;;;;;;;;1481823;40;20407;-90
2021/04/26 02:36:36;;;;;;;8.40;1.20;;;;;;;;;;1481528;40;20412;-89
2021/04/26 02:37:53;;;;;;;7.32;1.35;;;;;;;;;;1485477;40;20434;-90
2021/04/26 02:38:55;;;;;;;4.20;1.42;;;;;;;;;;1483531;40;20402;-90
2021/04/26 02:39:59;;;;;;;3.97;1.40;;;;;;;;;;1480697;40;20407;-89
2021/04/26 02:41:08;;;;;;;6.20;1.23;;;;;;;;;;1485149;40;20394;-90
2021/04/26 02:42:10;;;;;;;4.90;1.10;;;;;;;;;;1485659;40;20378;-89
2021/04/26 02:43:12;;;;;;;4.20;1.40;;;;;;;;;;1484965;40;20401;-88
2021/04/26 02:44:18;;;;;;;5.85;1.30;;;;;;;;;;1481146;40;20842;-88
2021/04/26 02:45:22;;;;;;;6.07;1.27;;;;;;;;;;1481104;40;20413;-89
2021/04/26 02:46:26;;;;;;;5.25;1.20;;;;;;;;;;1477049;40;20404;-89
2021/04/26 02:47:28;;;;;;;7.57;1.45;;;;;;;;;;1477293;40;20462;-89
2021/04/26 02:48:31;;;;;;;6.38;1.10;;;;;;;;;;1476079;40;20396;-88
2021/04/26 02:49:33;;;;;;;3.42;1.48;;;;;;;;;;1476446;40;20399;-87
2021/04/26 02:50:34;;;;;;;9.63;1.95;;;;;;;;;;1476822;40;20517;-89
2021/04/26 02:51:36;;;;;;;5.82;1.30;;;;;;;;;;1480513;40;20414;-88
2021/04/26 02:52:38;;;;;;;6.78;1.55;;;;;;;;;;1481079;40;20706;-89
2021/04/26 02:53:40;;;;;;;7.18;1.23;;;;;;;;;;1475953;40;20404;-90
2021/04/26 02:54:42;;;;;;;6.13;1.50;;;;;;;;;;1480841;40;20781;-89
2021/04/26 02:55:45;;;;;;;6.22;1.65;;;;;;;;;;1480877;40;20776;-90
2021/04/26 02:56:50;;;;;;;4.70;1.23;;;;;;;;;;1480707;40;20807;-90
2021/04/26 02:57:54;;;;;;;5.38;1.33;;;;;;;;;;1480926;40;20421;-91
2021/04/26 02:59:03;;;;;;;3.28;1.08;;;;;;;;;;1476223;40;20697;-90
2021/04/26 03:00:05;;;;;;;4.07;1.30;;;;;;;;;;1475516;40;20415;-91
2021/04/26 03:01:07;;;;;;;3.67;1.40;;;;;;;;;;1479011;40;20407;-90
2021/04/26 03:02:09;;;;;;;6.45;1.30;;;;;;;;;;1480672;40;20785;-89
2021/04/26 03:03:14;;;;;;;6.38;1.40;;;;;;;;;;1476770;40;20412;-89
2021/04/26 03:04:18;;;;;;;4.65;1.35;;;;;;;;;;1471454;40;20492;-88
2021/04/26 03:05:20;;;;;;;3.90;1.00;;;;;;;;;;1470862;40;20408;-89
2021/04/26 03:06:23;;;;;;;6.75;1.23;;;;;;;;;;1475733;40;20418;-91
2021/04/26 03:07:26;;;;;;;4.05;1.05;;;;;;;;;;1480284;40;20785;-91
2021/04/26 03:08:28;;;;;;;3.05;0.90;;;;;;;;;;1480082;40;20403;-90
2021/04/26 03:09:30;;;;;;;2.92;1.10;;;;;;;;;;1480732;40;20399;-91
2021/04/26 03:10:33;;;;;;;4.18;0.90;;;;;;;;;;1480006;40;20451;-90
2021/04/26 03:11:34;;;;;;;6.18;1.17;;;;;;;;;;1480682;40;20488;-91
2021/04/26 03:12:40;;;;;;;5.10;0.93;;;;;;;;;;1480853;40;20403;-91
2021/04/26 03:13:41;;;;;;;7.93;1.38;;;;;;;;;;1480254;40;20404;-91
2021/04/26 03:14:43;;;;;;;4.75;0.98;;;;;;;;;;1472817;40;20406;-91
2021/04/26 03:15:44;;;;;;;3.67;1.17;;;;;;;;;;1468820;40;20813;-91
2021/04/26 03:16:46;;;;;;;3.75;1.00;;;;;;;;;;1473038;40;20425;-90
2021/04/26 03:17:49;;;;;;;5.93;1.17;;;;;;;;;;1476358;40;20407;-90
2021/04/26 03:18:50;;;;;;;5.32;1.33;;;;;;;;;;1476455;40;20412;-91
2021/04/26 03:19:55;;;;;;;2.70;0.95;;;;;;;;;;1471006;40;20687;-90
2021/04/26 03:20:57;;;;;;;6.95;1.38;;;;;;;;;;1468234;40;20455;-91
2021/04/26 03:21:59;;;;;;;6.28;1.20;;;;;;;;;;1476702;40;20416;-91
2021/04/26 03:23:00;;;;;;;6.07;1.48;;;;;;;;;;1475674;40;20444;-91
2021/04/26 03:24:02;;;;;;;6.75;1.25;;;;;;;;;;1476199;40;20836;-91
2021/04/26 03:25:04;;;;;;;4.32;1.10;;;;;;;;;;1470888;40;20413;-91
2021/04/26 03:26:06;;;;;;;3.88;1.20;;;;;;;;;;1475793;40;20599;-90
2021/04/26 03:27:07;;;;;;;5.20;1.20;;;;;;;;;;1475995;40;20392;-91
2021/04/26 03:28:10;;;;;;;4.60;1.20;;;;;;;;;;1472196;40;20434;-91
2021/04/26 03:29:18;;;;;;;5.05;1.30;;;;;;;;;;1471977;40;20418;-90
2021/04/26 03:30:27;;;;;;;4.55;1.25;;;;;;;;;;1471906;40;20390;-90
2021/04/26 03:31:29;;;;;;;8.30;1.20;;;;;;;;;;1475450;40;20436;-92
2021/04/26 03:32:31;;;;;;;7.32;1.10;;;;;;;;;;1472118;40;20394;-88
2021/04/26 03:33:33;;;;;;;7.20;1.60;;;;;;;;;;1475698;40;20405;-89
2021/04/26 03:34:34;;;;;;;7.35;1.27;;;;;;;;;;1476742;40;20428;-90
2021/04/26 03:35:35;;;;;;;3.60;1.45;;;;;;;;;;1475340;40;20404;-90
2021/04/26 03:36:41;;;;;;;3.80;1.15;;;;;;;;;;1475872;40;20411;-90
2021/04/26 03:37:49;;;;;;;4.43;1.40;;;;;;;;;;1475878;40;20423;-90
2021/04/26 03:38:51;;;;;;;9.23;1.15;;;;;;;;;;1477282;40;20834;-90
2021/04/26 03:39:53;;;;;;;8.25;1.50;;;;;;;;;;1477191;40;20392;-91
2021/04/26 03:40:55;;;;;;;7.07;1.80;;;;;;;;;;1475579;40;20436;-90
2021/04/26 03:41:56;;;;;;;5.45;1.52;;;;;;;;;;1475147;40;20435;-90
2021/04/26 03:42:58;;;;;;;4.55;1.65;;;;;;;;;;1471506;40;20409;-89
2021/04/26 03:44:02;;;;;;;8.27;1.10;;;;;;;;;;1471926;40;20527;-91
2021/04/26 03:45:12;;;;;;;3.22;1.05;;;;;;;;;;1473452;40;20445;-89
2021/04/26 03:46:20;;;;;;;4.25;1.55;;;;;;;;;;1472891;40;20471;-90
2021/04/26 03:47:23;;;;;;;4.22;1.80;;;;;;;;;;1472381;40;20819;-90
2021/04/26 03:48:25;;;;;;;6.03;1.30;;;;;;;;;;1471102;40;20425;-90
2021/04/26 03:49:27;;;;;;;7.07;1.38;;;;;;;;;;1472698;40;20401;-91
2021/04/26 03:50:28;;;;;;;4.18;1.70;;;;;;;;;;1472794;40;20408;-91
2021/04/26 03:51:30;;;;;;;6.68;2.30;;;;;;;;;;1472322;40;20414;-90
2021/04/26 03:52:31;;;;;;;6.47;1.70;;;;;;;;;;1471980;40;20412;-88
2021/04/26 03:53:34;;;;;;;6.25;1.30;;;;;;;;;;1469497;40;20425;-91
2021/04/26 03:54:36;;;;;;;4.40;1.38;;;;;;;;;;1475442;40;20477;-90
2021/04/26 03:55:37;;;;;;;6.32;1.60;;;;;;;;;;1478025;40;20415;-92
2021/04/26 03:56:38;;;;;;;2.88;1.15;;;;;;;;;;1479374;40;20396;-91
2021/04/26 03:57:40;;;;;;;9.05;1.60;;;;;;;;;;1480729;40;20400;-93
2021/04/26 03:58:42;;;;;;;5.97;1.45;;;;;;;;;;1476722;40;20390;-91
2021/04/26 03:59:44;;;;;;;4.03;1.48;;;;;;;;;;1480610;40;20493;-91
2021/04/26 04:00:46;;;;;;;5.15;1.60;;;;;;;;;;1480455;40;20416;-91
2021/04/26 04:01:48;;;;;;;5.85;1.35;;;;;;;;;;1484996;40;20387;-90
2021/04/26 04:02:50;;;;;;;6.32;1.55;;;;;;;;;;1484470;40;20402;-92
2021/04/26 04:03:52;;;;;;;5.25;1.40;;;;;;;;;;1484752;40;20410;-91
2021/04/26 04:04:55;;;;;;;5.07;1.33;;;;;;;;;;1484242;40;20453;-90
2021/04/26 04:05:56;;;;;;;5.45;1.60;;;;;;;;;;1484967;40;20786;-89
2021/04/26 04:06:59;;;;;;;5.75;1.73;;;;;;;;;;1480508;40;20516;-91
2021/04/26 04:08:00;;;;;;;9.18;1.60;;;;;;;;;;1481535;40;20504;-88
2021/04/26 04:09:03;;;;;;;9.80;2.20;;;;;;;;;;1481147;40;20399;-91
2021/04/26 04:10:09;;;;;;;7.85;1.40;;;;;;;;;;1480967;40;20413;-90
2021/04/26 04:11:10;;;;;;;3.20;1.10;;;;;;;;;;1475418;40;20396;-90
2021/04/26 04:12:11;;;;;;;4.70;1.73;;;;;;;;;;1470575;40;20453;-89
2021/04/26 04:13:13;;;;;;;6.17;1.53;;;;;;;;;;1466877;40;20668;-91
2021/04/26 04:14:15;;;;;;;5.25;1.27;;;;;;;;;;1474247;40;20404;-91
2021/04/26 04:15:17;;;;;;;6.25;1.50;;;;;;;;;;1471851;40;20404;-90
2021/04/26 04:16:19;;;;;;;5.88;1.35;;;;;;;;;;1476012;40;20448;-90
2021/04/26 04:17:20;;;;;;;5.78;1.90;;;;;;;;;;1475535;40;20404;-89
2021/04/26 04:18:23;;;;;;;6.82;1.67;;;;;;;;;;1476072;40;20396;-90
2021/04/26 04:19:25;;;;;;;5.70;1.27;;;;;;;;;;1478364;40;20403;-90
2021/04/26 04:20:26;;;;;;;4.68;1.60;;;;;;;;;;1475810;40;20399;-89
2021/04/26 04:21:28;;;;;;;7.50;1.75;;;;;;;;;;1475757;40;20392;-87
2021/04/26 04:22:29;;;;;;;5.80;1.70;;;;;;;;;;1474947;40;20819;-90
2021/04/26 04:23:35;;;;;;;7.90;1.63;;;;;;;;;;1475536;40;20399;-89
2021/04/26 04:24:38;;;;;;;7.60;1.50;;;;;;;;;;1473003;40;20397;-91
2021/04/26 04:25:40;;;;;;;6.82;2.33;;;;;;;;;;1470016;40;20395;-91
2021/04/26 04:26:42;;;;;;;6.63;1.45;;;;;;;;;;1479035;40;20415;-90
2021/04/26 04:27:44;;;;;;;5.22;1.98;;;;;;;;;;1479658;40;20784;-91
2021/04/26 04:28:45;;;;;;;6.65;1.75;;;;;;;;;;1479879;40;20400;-91
2021/04/26 04:29:47;;;;;;;4.13;1.17;;;;;;;;;;1480051;40;20415;-92
2021/04/26 04:30:49;;;;;;;6.78;2.05;;;;;;;;;;1479927;40;20411;-92
2021/04/26 04:31:50;;;;;;;10.43;2.15;;;;;;;;;;1480146;40;20511;-90
2021/04/26 04:32:52;;;;;;;10.05;1.75;;;;;;;;;;1476461;40;20496;-90
2021/04/26 04:33:54;;;;;;;3.05;1.00;;;;;;;;;;1482604;40;20402;-89
2021/04/26 04:34:55;;;;;;;6.10;1.38;;;;;;;;;;1477720;40;20396;-92
2021/04/26 04:35:57;;;;;;;4.60;1.50;;;;;;;;;;1473714;40;20394;-91
2021/04/26 04:36:59;;;;;;;8.25;1.70;;;;;;;;;;1477588;40;20468;-90
2021/04/26 04:38:02;;;;;;;10.20;2.05;;;;;;;;;;1479119;40;20494;-91
2021/04/26 04:39:04;;;;;;;5.90;1.67;;;;;;;;;;1476442;40;20411;-90
2021/04/26 04:40:05;;;;;;;3.28;1.52;;;;;;;;;;1476123;40;20423;-89
2021/04/26 04:41:06;;;;;;;7.13;1.95;;;;;;;;;;1475925;40;20411;-89
2021/04/26 04:42:08;;;;;;;5.63;1.60;;;;;;;;;;1475682;40;20420;-90
2021/04/26 04:43:10;;;;;;;7.68;1.73;;;;;;;;;;1478333;40;20412;-91
2021/04/26 04:44:12;;;;;;;8.35;1.95;;;;;;;;;;1475323;40;20606;-89
2021/04/26 04:45:19;;;;;;;6.05;2.00;;;;;;;;;;1474688;40;20398;-90
2021/04/26 04:46:20;;;;;;;5.57;1.60;;;;;;;;;;1475899;40;21116;-88
2021/04/26 04:47:22;;;;;;;4.03;1.40;;;;;;;;;;1471717;40;20398;-90
2021/04/26 04:48:24;;;;;;;6.30;1.77;;;;;;;;;;1472124;40;20413;-89
2021/04/26 04:49:27;;;;;;;3.55;1.73;;;;;;;;;;1475768;40;20407;-89
2021/04/26 04:50:28;;;;;;;7.70;2.15;;;;;;;;;;1475493;40;20404;-89
2021/04/26 04:51:34;;;;;;;7.63;1.52;;;;;;;;;;1476067;40;20411;-88
2021/04/26 04:52:35;;;;;;;7.50;2.10;;;;;;;;;;1471651;40;20390;-90
2021/04/26 04:53:37;;;;;;;6.10;1.90;;;;;;;;;;1472387;40;20402;-89
2021/04/26 04:54:38;;;;;;;6.90;1.50;;;;;;;;;;1475632;40;20399;-90
2021/04/26 04:55:40;;;;;;;6.43;1.80;;;;;;;;;;1471079;40;20390;-89
2021/04/26 04:56:41;;;;;;;4.57;1.55;;;;;;;;;;1471155;40;20439;-88
2021/04/26 04:57:43;;;;;;;10.30;1.98;;;;;;;;;;1475428;40;20465;-90
2021/04/26 04:58:44;;;;;;;7.22;1.40;;;;;;;;;;1476666;40;20396;-90
2021/04/26 04:59:45;;;;;;;5.28;1.90;;;;;;;;;;1476398;40;20411;-88
2021/04/26 05:00:50;;;;;;;5.57;1.50;;;;;;;;;;1476412;40;20424;-89
2021/04/26 05:01:51;;;;;;;6.57;1.90;;;;;;;;;;1481126;40;20402;-90
2021/04/26 05:02:52;;;;;;;7.20;1.50;;;;;;;;;;1480050;40;20676;-89
2021/04/26 05:03:54;;;;;;;2.97;1.08;;;;;;;;;;1477185;40;20404;-89
2021/04/26 05:04:56;;;;;;;7.10;1.65;;;;;;;;;;1473985;40;20386;-90
2021/04/26 05:05:57;;;;;;;3.70;1.40;;;;;;;;;;1477994;40;20483;-89
2021/04/26 05:06:59;;;;;;;10.68;2.00;;;;;;;;;;1473949;40;20413;-90
2021/04/26 05:08:01;;;;;;;5.85;1.65;;;;;;;;;;1471971;40;20415;-90
2021/04/26 05:09:02;;;;;;;3.83;2.03;;;;;;;;;;1480810;40;20395;-91
2021/04/26 05:10:06;;;;;;;6.20;1.65;;;;;;;;;;1481162;40;20534;-91
2021/04/26 05:11:13;;;;;;;7.75;1.45;;;;;;;;;;1481028;40;20399;-90
2021/04/26 05:12:15;;;;;;;5.32;1.50;;;;;;;;;;1480911;40;20470;-92
2021/04/26 05:13:19;;;;;;;5.97;1.55;;;;;;;;;;1480858;40;20400;-91
2021/04/26 05:14:20;;;;;;;4.97;1.00;;;;;;;;;;1481021;40;20420;-92
2021/04/26 05:15:21;;;;;;;8.15;2.35;;;;;;;;;;1480560;40;20407;-93
2021/04/26 05:16:28;;;;;;;5.30;1.42;;;;;;;;;;1480971;40;20419;-93
2021/04/26 05:17:31;;;;;;;5.32;1.58;;;;;;;;;;1480915;40;20415;-91
2021/04/26 05:18:33;;;;;;;8.52;1.90;;;;;;;;;;1477226;40;20414;-91
2021/04/26 05:19:36;;;;;;;7.35;1.80;;;;;;;;;;1480938;40;20419;-90
2021/04/26 05:20:39;;;;;;;5.15;1.83;;;;;;;;;;1478659;40;20384;-88
2021/04/26 05:21:41;;;;;;;7.18;1.55;;;;;;;;;;1473216;40;20421;-88
2021/04/26 05:22:42;;;;;;;5.50;1.17;;;;;;;;;;1476010;40;20767;-90
2021/04/26 05:23:44;;;;;;;12.10;2.22;;;;;;;;;;1476568;40;20620;-90
2021/04/26 05:24:48;;;;;;;8.70;2.03;;;;;;;;;;1468264;40;20403;-90
2021/04/26 05:25:49;;;;;;;7.00;1.33;;;;;;;;;;1466676;40;20442;-90
2021/04/26 05:26:51;;;;;;;4.85;1.30;;;;;;;;;;1476526;40;20415;-89
2021/04/26 05:27:52;;;;;;;7.07;1.77;;;;;;;;;;1472556;40;20401;-91
2021/04/26 05:28:54;;;;;;;8.18;1.92;;;;;;;;;;1476419;40;20404;-90
2021/04/26 05:29:59;;;;;;;9.70;1.55;;;;;;;;;;1474237;40;20448;-91
2021/04/26 05:31:00;;;;;;;4.63;1.42;;;;;;;;;;1474228;40;20398;-90
2021/04/26 05:32:02;;;;;;;7.07;1.60;;;;;;;;;;1476535;40;20487;-90
2021/04/26 05:33:03;;;;;;;7.15;1.58;;;;;;;;;;1472252;40;20481;-91
2021/04/26 05:34:04;;;;;;;4.72;1.50;;;;;;;;;;1476843;40;20397;-92
2021/04/26 05:35:06;;;;;;;5.68;1.17;;;;;;;;;;1485031;40;20398;-91
2021/04/26 05:36:07;;;;;;;3.58;1.33;;;;;;;;;;1481061;40;20420;-90
2021/04/26 05:37:08;;;;;;;4.53;1.35;;;;;;;;;;1481392;40;20411;-89
2021/04/26 05:38:10;;;;;;;4.82;1.40;;;;;;;;;;1480094;40;20415;-90
2021/04/26 05:39:11;;;;;;;8.77;1.70;;;;;;;;;;1473813;40;20718;-91
2021/04/26 05:40:13;;;;;;;6.60;1.92;;;;;;;;;;1481349;40;20398;-89
2021/04/26 05:41:16;;;;;;;7.68;1.92;;;;;;;;;;1478976;40;20407;-89
2021/04/26 05:42:17;;;;;;;7.22;1.70;;;;;;;;;;1472630;40;20417;-90
2021/04/26 05:43:18;;;;;;;4.35;1.83;;;;;;;;;;1473471;40;20655;-91
2021/04/26 05:44:20;;;;;;;5.72;1.60;;;;;;;;;;1472693;40;20417;-88
2021/04/26 05:45:23;;;;;;;5.32;1.45;;;;;;;;;;1473263;40;20449;-91
2021/04/26 05:46:27;;;;;;;7.90;1.60;;;;;;;;;;1472585;40;20436;-90
2021/04/26 05:47:30;;;;;;;5.22;1.60;;;;;;;;;;1473183;40;20547;-90
2021/04/26 05:48:31;;;;;;;6.15;1.73;;;;;;;;;;1477396;40;20402;-90
2021/04/26 05:49:33;;;;;;;5.50;1.30;;;;;;;;;;1473131;40;20409;-90
2021/04/26 05:50:38;;;;;;;2.95;1.50;;;;;;;;;;1473998;40;20405;-89
2021/04/26 05:51:41;;;;;;;7.05;1.20;;;;;;;;;;1473774;40;20478;-91
2021/04/26 05:52:43;;;;;;;6.93;1.20;;;;;;;;;;1479005;40;20400;-90
2021/04/26 05:53:45;;;;;;;7.00;1.23;;;;;;;;;;1480306;40;20435;-92
2021/04/26 05:54:50;;;;;;;6.20;1.58;;;;;;;;;;1479888;40;20482;-90
2021/04/26 05:55:51;;;;;;;10.85;1.67;;;;;;;;;;1482632;40;20393;-90
2021/04/26 05:56:56;;;;;;;5.90;2.10;;;;;;;;;;1483431;40;20505;-91
2021/04/26 05:57:58;;;;;;;7.13;2.00;;;;;;;;;;1481365;40;20394;-90
2021/04/26 05:58:59;;;;;;;7.65;2.10;;;;;;;;;;1481705;40;20459;-91
2021/04/26 06:00:01;;;;;;;5.70;1.20;;;;;;;;;;1477913;40;20419;-90
2021/04/26 06:01:06;;;;;;;5.78;1.73;;;;;;;;;;1476690;40;20716;-91
2021/04/26 06:02:07;;;;;;;6.53;1.55;;;;;;;;;;1472708;40;20414;-90
2021/04/26 06:03:09;;;;;;;6.20;1.90;;;;;;;;;;1476644;40;20458;-90
2021/04/26 06:04:11;;;;;;;7.10;1.80;;;;;;;;;;1476630;40;20403;-91
2021/04/26 06:05:12;;;;;;;7.28;1.23;;;;;;;;;;1469072;40;20407;-91
2021/04/26 06:06:20;;;;;;;4.45;1.63;;;;;;;;;;1476381;40;20451;-90
2021/04/26 06:07:26;;;;;;;9.57;1.77;;;;;;;;;;1472759;40;20528;-90
2021/04/26 06:08:29;;;;;;;6.75;1.40;;;;;;;;;;1480031;40;20409;-90
2021/04/26 06:09:30;;;;;;;6.60;1.90;;;;;;;;;;1480058;40;20453;-91
2021/04/26 06:10:31;;;;;;;8.57;2.20;;;;;;;;;;1476912;40;20423;-90
2021/04/26 06:11:33;;;;;;;4.65;0.82;;;;;;;;;;1476756;40;20415;-92
2021/04/26 06:12:34;;;;;;;6.28;1.80;;;;;;;;;;1470228;40;20465;-91
2021/04/26 06:13:37;;;;;;;6.13;1.65;;;;;;;;;;1472325;40;20651;-91
2021/04/26 06:14:39;;;;;;;3.58;1.40;;;;;;;;;;1476697;40;20505;-90
2021/04/26 06:15:40;;;;;;;6.78;1.60;;;;;;;;;;1477135;40;20392;-90
2021/04/26 06:16:42;;;;;;;4.78;1.08;;;;;;;;;;1476788;40;20428;-91
2021/04/26 06:17:44;;;;;;;4.43;1.55;;;;;;;;;;1475236;40;20465;-91